sensor_id;sensor_type;location;lat;lon;timestamp;temperature;humidity
65369;HTU21D;51970;53.484;49.488;2024-01-30T00:02:15;-1.76;80.16
65369;HTU21D;51970;53.484;49.488;2024-01-30T00:04:41;-1.74;79.96
65369;HTU21D;51970;53.484;49.488;2024-01-30T00:07:08;-1.71;79.91
65369;HTU21D;51970;53.484;49.488;2024-01-30T00:09:34;-1.63;80.14
65369;HTU21D;51970;53.484;49.488;2024-01-30T00:12:01;-1.60;79.93
65369;HTU21D;51970;53.484;49.488;2024-01-30T00:14:27;-1.70;79.21
65369;HTU21D;51970;53.484;49.488;2024-01-30T00:16:53;-1.74;79.82
65369;HTU21D;51970;53.484;49.488;2024-01-30T00:19:19;-1.72;79.82
65369;HTU21D;51970;53.484;49.488;2024-01-30T00:21:46;-1.61;79.60
65369;HTU21D;51970;53.484;49.488;2024-01-30T00:24:12;-1.65;79.21
65369;HTU21D;51970;53.484;49.488;2024-01-30T00:26:38;-1.65;79.57
65369;HTU21D;51970;53.484;49.488;2024-01-30T00:29:04;-1.69;79.47
65369;HTU21D;51970;53.484;49.488;2024-01-30T00:31:31;-1.68;79.48
65369;HTU21D;51970;53.484;49.488;2024-01-30T00:33:57;-1.63;79.36
65369;HTU21D;51970;53.484;49.488;2024-01-30T00:36:24;-1.50;79.97
65369;HTU21D;51970;53.484;49.488;2024-01-30T00:38:50;-1.41;79.46
65369;HTU21D;51970;53.484;49.488;2024-01-30T00:41:20;-1.46;79.01
65369;HTU21D;51970;53.484;49.488;2024-01-30T00:43:46;-1.46;79.11
65369;HTU21D;51970;53.484;49.488;2024-01-30T00:46:12;-1.46;78.50
65369;HTU21D;51970;53.484;49.488;2024-01-30T00:48:39;-1.50;78.60
65369;HTU21D;51970;53.484;49.488;2024-01-30T00:51:05;-1.53;78.80
65369;HTU21D;51970;53.484;49.488;2024-01-30T00:53:31;-1.58;78.58
65369;HTU21D;51970;53.484;49.488;2024-01-30T00:55:57;-1.59;79.02
65369;HTU21D;51970;53.484;49.488;2024-01-30T00:58:24;-1.54;79.04
65369;HTU21D;51970;53.484;49.488;2024-01-30T01:00:51;-1.52;79.18
65369;HTU21D;51970;53.484;49.488;2024-01-30T01:03:17;-1.67;79.05
65369;HTU21D;51970;53.484;49.488;2024-01-30T01:05:44;-1.71;79.42
65369;HTU21D;51970;53.484;49.488;2024-01-30T01:08:10;-1.73;79.75
65369;HTU21D;51970;53.484;49.488;2024-01-30T01:10:36;-1.76;79.63
65369;HTU21D;51970;53.484;49.488;2024-01-30T01:13:03;-1.83;80.10
65369;HTU21D;51970;53.484;49.488;2024-01-30T01:15:29;-1.80;80.11
65369;HTU21D;51970;53.484;49.488;2024-01-30T01:17:55;-1.77;80.13
65369;HTU21D;51970;53.484;49.488;2024-01-30T01:20:21;-1.77;80.20
65369;HTU21D;51970;53.484;49.488;2024-01-30T01:22:48;-1.79;80.04
65369;HTU21D;51970;53.484;49.488;2024-01-30T01:25:14;-1.75;80.22
65369;HTU21D;51970;53.484;49.488;2024-01-30T01:27:41;-1.75;79.93
65369;HTU21D;51970;53.484;49.488;2024-01-30T01:30:09;-1.70;80.21
65369;HTU21D;51970;53.484;49.488;2024-01-30T01:32:36;-1.82;80.83
65369;HTU21D;51970;53.484;49.488;2024-01-30T01:35:04;-1.78;81.30
65369;HTU21D;51970;53.484;49.488;2024-01-30T01:37:33;-1.86;81.03
65369;HTU21D;51970;53.484;49.488;2024-01-30T01:40:00;-1.87;81.50
65369;HTU21D;51970;53.484;49.488;2024-01-30T01:42:27;-1.84;81.39
65369;HTU21D;51970;53.484;49.488;2024-01-30T01:44:53;-1.90;82.01
65369;HTU21D;51970;53.484;49.488;2024-01-30T01:47:20;-1.88;82.42
65369;HTU21D;51970;53.484;49.488;2024-01-30T01:49:47;-1.93;82.99
65369;HTU21D;51970;53.484;49.488;2024-01-30T01:52:13;-1.92;83.27
65369;HTU21D;51970;53.484;49.488;2024-01-30T01:54:40;-1.97;83.48
65369;HTU21D;51970;53.484;49.488;2024-01-30T01:57:07;-2.01;83.97
65369;HTU21D;51970;53.484;49.488;2024-01-30T01:59:33;-2.02;84.26
65369;HTU21D;51970;53.484;49.488;2024-01-30T02:02:00;-2.01;84.18
65369;HTU21D;51970;53.484;49.488;2024-01-30T02:04:28;-2.04;84.43
65369;HTU21D;51970;53.484;49.488;2024-01-30T02:06:55;-2.04;84.23
65369;HTU21D;51970;53.484;49.488;2024-01-30T02:09:21;-1.94;84.07
65369;HTU21D;51970;53.484;49.488;2024-01-30T02:11:48;-2.01;83.78
65369;HTU21D;51970;53.484;49.488;2024-01-30T02:14:14;-1.92;83.29
65369;HTU21D;51970;53.484;49.488;2024-01-30T02:16:41;-1.86;82.43
65369;HTU21D;51970;53.484;49.488;2024-01-30T02:19:07;-1.84;82.33
65369;HTU21D;51970;53.484;49.488;2024-01-30T02:21:34;-1.75;81.87
65369;HTU21D;51970;53.484;49.488;2024-01-30T02:24:01;-1.77;81.93
65369;HTU21D;51970;53.484;49.488;2024-01-30T02:26:28;-1.78;81.75
65369;HTU21D;51970;53.484;49.488;2024-01-30T02:28:55;-1.78;82.02
65369;HTU21D;51970;53.484;49.488;2024-01-30T02:31:21;-1.80;81.54
65369;HTU21D;51970;53.484;49.488;2024-01-30T02:33:47;-1.80;81.74
65369;HTU21D;51970;53.484;49.488;2024-01-30T02:36:14;-1.79;81.51
65369;HTU21D;51970;53.484;49.488;2024-01-30T02:38:41;-1.80;81.45
65369;HTU21D;51970;53.484;49.488;2024-01-30T02:41:07;-1.74;81.21
65369;HTU21D;51970;53.484;49.488;2024-01-30T02:43:34;-1.70;81.04
65369;HTU21D;51970;53.484;49.488;2024-01-30T02:46:00;-1.69;80.98
65369;HTU21D;51970;53.484;49.488;2024-01-30T02:48:26;-1.67;80.98
65369;HTU21D;51970;53.484;49.488;2024-01-30T02:50:53;-1.60;80.84
65369;HTU21D;51970;53.484;49.488;2024-01-30T02:53:19;-1.61;80.56
65369;HTU21D;51970;53.484;49.488;2024-01-30T02:55:45;-1.60;81.07
65369;HTU21D;51970;53.484;49.488;2024-01-30T02:58:12;-1.65;82.06
65369;HTU21D;51970;53.484;49.488;2024-01-30T03:00:38;-1.69;82.65
65369;HTU21D;51970;53.484;49.488;2024-01-30T03:03:04;-1.74;83.42
65369;HTU21D;51970;53.484;49.488;2024-01-30T03:05:31;-1.73;83.93
65369;HTU21D;51970;53.484;49.488;2024-01-30T03:07:57;-1.78;84.03
65369;HTU21D;51970;53.484;49.488;2024-01-30T03:10:23;-1.80;84.52
65369;HTU21D;51970;53.484;49.488;2024-01-30T03:12:49;-1.79;84.69
65369;HTU21D;51970;53.484;49.488;2024-01-30T03:15:16;-1.76;84.42
65369;HTU21D;51970;53.484;49.488;2024-01-30T03:17:42;-1.75;84.04
65369;HTU21D;51970;53.484;49.488;2024-01-30T03:20:08;-1.71;83.72
65369;HTU21D;51970;53.484;49.488;2024-01-30T03:22:35;-1.64;83.78
65369;HTU21D;51970;53.484;49.488;2024-01-30T03:25:02;-1.60;83.23
65369;HTU21D;51970;53.484;49.488;2024-01-30T03:27:28;-1.58;82.67
65369;HTU21D;51970;53.484;49.488;2024-01-30T03:29:55;-1.59;82.57
65369;HTU21D;51970;53.484;49.488;2024-01-30T03:32:21;-1.58;82.52
65369;HTU21D;51970;53.484;49.488;2024-01-30T03:34:47;-1.52;81.96
65369;HTU21D;51970;53.484;49.488;2024-01-30T03:37:14;-1.53;81.78
65369;HTU21D;51970;53.484;49.488;2024-01-30T03:39:40;-1.49;81.49
65369;HTU21D;51970;53.484;49.488;2024-01-30T03:42:07;-1.45;80.98
65369;HTU21D;51970;53.484;49.488;2024-01-30T03:44:33;-1.46;80.83
65369;HTU21D;51970;53.484;49.488;2024-01-30T03:46:59;-1.46;80.80
65369;HTU21D;51970;53.484;49.488;2024-01-30T03:49:25;-1.43;80.65
65369;HTU21D;51970;53.484;49.488;2024-01-30T03:51:52;-1.38;80.46
65369;HTU21D;51970;53.484;49.488;2024-01-30T03:54:18;-1.38;80.42
65369;HTU21D;51970;53.484;49.488;2024-01-30T03:56:44;-1.39;80.70
65369;HTU21D;51970;53.484;49.488;2024-01-30T03:59:12;-1.39;80.36
65369;HTU21D;51970;53.484;49.488;2024-01-30T04:01:38;-1.42;80.86
65369;HTU21D;51970;53.484;49.488;2024-01-30T04:04:04;-1.42;80.81
65369;HTU21D;51970;53.484;49.488;2024-01-30T04:06:31;-1.41;80.82
65369;HTU21D;51970;53.484;49.488;2024-01-30T04:08:57;-1.42;80.78
65369;HTU21D;51970;53.484;49.488;2024-01-30T04:11:23;-1.41;80.90
65369;HTU21D;51970;53.484;49.488;2024-01-30T04:13:50;-1.45;80.87
65369;HTU21D;51970;53.484;49.488;2024-01-30T04:16:21;-1.41;80.80
65369;HTU21D;51970;53.484;49.488;2024-01-30T04:18:48;-1.43;80.90
65369;HTU21D;51970;53.484;49.488;2024-01-30T04:21:14;-1.44;80.59
65369;HTU21D;51970;53.484;49.488;2024-01-30T04:23:41;-1.45;80.90
65369;HTU21D;51970;53.484;49.488;2024-01-30T04:26:08;-1.40;80.75
65369;HTU21D;51970;53.484;49.488;2024-01-30T04:28:34;-1.46;80.70
65369;HTU21D;51970;53.484;49.488;2024-01-30T04:31:01;-1.44;80.93
65369;HTU21D;51970;53.484;49.488;2024-01-30T04:33:27;-1.43;80.78
65369;HTU21D;51970;53.484;49.488;2024-01-30T04:35:53;-1.43;80.65
65369;HTU21D;51970;53.484;49.488;2024-01-30T04:38:19;-1.41;80.33
65369;HTU21D;51970;53.484;49.488;2024-01-30T04:40:46;-1.41;80.26
65369;HTU21D;51970;53.484;49.488;2024-01-30T04:43:12;-1.38;80.07
65369;HTU21D;51970;53.484;49.488;2024-01-30T04:45:38;-1.40;80.31
65369;HTU21D;51970;53.484;49.488;2024-01-30T04:48:05;-1.39;80.28
65369;HTU21D;51970;53.484;49.488;2024-01-30T04:50:31;-1.32;80.28
65369;HTU21D;51970;53.484;49.488;2024-01-30T04:52:58;-1.26;79.95
65369;HTU21D;51970;53.484;49.488;2024-01-30T04:55:24;-1.21;79.75
65369;HTU21D;51970;53.484;49.488;2024-01-30T04:57:50;-1.28;79.59
65369;HTU21D;51970;53.484;49.488;2024-01-30T05:00:17;-1.25;79.75
65369;HTU21D;51970;53.484;49.488;2024-01-30T05:02:43;-1.19;79.75
65369;HTU21D;51970;53.484;49.488;2024-01-30T05:05:10;-1.27;78.98
65369;HTU21D;51970;53.484;49.488;2024-01-30T05:07:36;-1.27;79.39
65369;HTU21D;51970;53.484;49.488;2024-01-30T05:10:03;-1.32;79.49
65369;HTU21D;51970;53.484;49.488;2024-01-30T05:12:30;-1.26;79.59
65369;HTU21D;51970;53.484;49.488;2024-01-30T05:14:56;-1.28;79.32
65369;HTU21D;51970;53.484;49.488;2024-01-30T05:17:22;-1.28;79.33
65369;HTU21D;51970;53.484;49.488;2024-01-30T05:19:49;-1.24;79.68
65369;HTU21D;51970;53.484;49.488;2024-01-30T05:22:15;-1.27;79.64
65369;HTU21D;51970;53.484;49.488;2024-01-30T05:24:44;-1.23;79.49
65369;HTU21D;51970;53.484;49.488;2024-01-30T05:27:10;-1.18;79.45
65369;HTU21D;51970;53.484;49.488;2024-01-30T05:29:43;-1.18;79.19
65369;HTU21D;51970;53.484;49.488;2024-01-30T05:32:10;-1.19;79.23
65369;HTU21D;51970;53.484;49.488;2024-01-30T05:34:36;-1.14;79.09
65369;HTU21D;51970;53.484;49.488;2024-01-30T05:37:03;-1.13;78.89
65369;HTU21D;51970;53.484;49.488;2024-01-30T05:39:29;-1.17;79.51
65369;HTU21D;51970;53.484;49.488;2024-01-30T05:41:58;-1.10;79.15
65369;HTU21D;51970;53.484;49.488;2024-01-30T05:44:25;-1.08;78.88
65369;HTU21D;51970;53.484;49.488;2024-01-30T05:46:51;-1.03;78.85
65369;HTU21D;51970;53.484;49.488;2024-01-30T05:49:17;-1.02;79.30
65369;HTU21D;51970;53.484;49.488;2024-01-30T05:51:44;-0.97;78.82
65369;HTU21D;51970;53.484;49.488;2024-01-30T05:54:11;-0.96;78.30
65369;HTU21D;51970;53.484;49.488;2024-01-30T05:56:37;-0.88;78.41
65369;HTU21D;51970;53.484;49.488;2024-01-30T05:59:03;-0.84;77.95
65369;HTU21D;51970;53.484;49.488;2024-01-30T06:01:30;-0.80;77.73
65369;HTU21D;51970;53.484;49.488;2024-01-30T06:03:56;-0.66;76.86
65369;HTU21D;51970;53.484;49.488;2024-01-30T06:06:22;-0.59;76.48
65369;HTU21D;51970;53.484;49.488;2024-01-30T06:08:49;-0.51;76.44
65369;HTU21D;51970;53.484;49.488;2024-01-30T06:11:15;-0.44;75.94
65369;HTU21D;51970;53.484;49.488;2024-01-30T06:13:41;-0.29;76.08
65369;HTU21D;51970;53.484;49.488;2024-01-30T06:16:10;-0.36;75.24
65369;HTU21D;51970;53.484;49.488;2024-01-30T06:18:37;-0.46;75.66
65369;HTU21D;51970;53.484;49.488;2024-01-30T06:21:04;-0.53;76.04
65369;HTU21D;51970;53.484;49.488;2024-01-30T06:23:31;-0.61;75.54
65369;HTU21D;51970;53.484;49.488;2024-01-30T06:25:57;-0.74;76.08
65369;HTU21D;51970;53.484;49.488;2024-01-30T06:28:23;-0.76;76.13
65369;HTU21D;51970;53.484;49.488;2024-01-30T06:30:49;-0.73;76.57
65369;HTU21D;51970;53.484;49.488;2024-01-30T06:33:16;-0.68;75.44
65369;HTU21D;51970;53.484;49.488;2024-01-30T06:35:42;-0.67;75.97
65369;HTU21D;51970;53.484;49.488;2024-01-30T06:38:09;-0.57;75.71
65369;HTU21D;51970;53.484;49.488;2024-01-30T06:40:36;-0.55;74.91
65369;HTU21D;51970;53.484;49.488;2024-01-30T06:43:02;-0.69;74.54
65369;HTU21D;51970;53.484;49.488;2024-01-30T06:45:30;-0.72;74.76
65369;HTU21D;51970;53.484;49.488;2024-01-30T06:47:56;-0.79;75.21
65369;HTU21D;51970;53.484;49.488;2024-01-30T06:50:22;-0.79;74.67
65369;HTU21D;51970;53.484;49.488;2024-01-30T06:52:49;-0.75;73.51
65369;HTU21D;51970;53.484;49.488;2024-01-30T06:55:15;-0.77;74.13
65369;HTU21D;51970;53.484;49.488;2024-01-30T06:57:41;-0.72;73.99
65369;HTU21D;51970;53.484;49.488;2024-01-30T07:00:08;-0.74;73.37
65369;HTU21D;51970;53.484;49.488;2024-01-30T07:02:34;-0.82;73.10
65369;HTU21D;51970;53.484;49.488;2024-01-30T07:05:01;-0.95;73.18
65369;HTU21D;51970;53.484;49.488;2024-01-30T07:07:27;-1.05;73.74
65369;HTU21D;51970;53.484;49.488;2024-01-30T07:09:55;-1.04;73.93
65369;HTU21D;51970;53.484;49.488;2024-01-30T07:12:24;-0.98;73.70
65369;HTU21D;51970;53.484;49.488;2024-01-30T07:14:52;-0.97;73.76
65369;HTU21D;51970;53.484;49.488;2024-01-30T07:17:18;-0.90;73.61
65369;HTU21D;51970;53.484;49.488;2024-01-30T07:19:45;-0.67;73.03
65369;HTU21D;51970;53.484;49.488;2024-01-30T07:22:11;-0.89;72.60
65369;HTU21D;51970;53.484;49.488;2024-01-30T07:24:42;-0.99;73.15
65369;HTU21D;51970;53.484;49.488;2024-01-30T07:27:10;-0.94;72.20
65369;HTU21D;51970;53.484;49.488;2024-01-30T07:29:37;-0.97;72.46
65369;HTU21D;51970;53.484;49.488;2024-01-30T07:32:03;-0.99;72.50
65369;HTU21D;51970;53.484;49.488;2024-01-30T07:34:30;-1.04;72.30
65369;HTU21D;51970;53.484;49.488;2024-01-30T07:36:56;-0.98;72.75
65369;HTU21D;51970;53.484;49.488;2024-01-30T07:39:22;-0.87;72.35
65369;HTU21D;51970;53.484;49.488;2024-01-30T07:41:49;-0.95;71.30
65369;HTU21D;51970;53.484;49.488;2024-01-30T07:44:15;-1.09;72.09
65369;HTU21D;51970;53.484;49.488;2024-01-30T07:46:42;-1.23;72.54
65369;HTU21D;51970;53.484;49.488;2024-01-30T07:49:08;-1.28;72.51
65369;HTU21D;51970;53.484;49.488;2024-01-30T07:51:37;-1.17;73.44
65369;HTU21D;51970;53.484;49.488;2024-01-30T07:54:03;-1.13;72.98
65369;HTU21D;51970;53.484;49.488;2024-01-30T07:56:30;-1.19;72.33
65369;HTU21D;51970;53.484;49.488;2024-01-30T07:58:56;-1.08;72.29
65369;HTU21D;51970;53.484;49.488;2024-01-30T08:01:22;-1.08;72.19
65369;HTU21D;51970;53.484;49.488;2024-01-30T08:03:48;-0.82;72.37
65369;HTU21D;51970;53.484;49.488;2024-01-30T08:06:15;-0.61;70.71
65369;HTU21D;51970;53.484;49.488;2024-01-30T08:08:41;-0.86;70.82
65369;HTU21D;51970;53.484;49.488;2024-01-30T08:11:08;-1.00;71.30
65369;HTU21D;51970;53.484;49.488;2024-01-30T08:13:34;-1.18;71.94
65369;HTU21D;51970;53.484;49.488;2024-01-30T08:16:01;-1.17;71.86
65369;HTU21D;51970;53.484;49.488;2024-01-30T08:18:27;-1.14;71.44
65369;HTU21D;51970;53.484;49.488;2024-01-30T08:20:54;-1.17;71.47
65369;HTU21D;51970;53.484;49.488;2024-01-30T08:23:20;-1.11;72.19
65369;HTU21D;51970;53.484;49.488;2024-01-30T08:25:52;-1.13;72.05
65369;HTU21D;51970;53.484;49.488;2024-01-30T08:28:23;-1.06;71.33
65369;HTU21D;51970;53.484;49.488;2024-01-30T08:30:54;-0.82;71.15
65369;HTU21D;51970;53.484;49.488;2024-01-30T08:33:26;-0.56;70.35
65369;HTU21D;51970;53.484;49.488;2024-01-30T08:35:58;-0.47;70.77
65369;HTU21D;51970;53.484;49.488;2024-01-30T08:38:29;-0.62;70.32
65369;HTU21D;51970;53.484;49.488;2024-01-30T08:41:00;-0.69;70.93
65369;HTU21D;51970;53.484;49.488;2024-01-30T08:43:32;-0.69;72.19
65369;HTU21D;51970;53.484;49.488;2024-01-30T08:46:03;-0.68;71.38
65369;HTU21D;51970;53.484;49.488;2024-01-30T08:48:35;-0.57;71.48
65369;HTU21D;51970;53.484;49.488;2024-01-30T08:51:02;-0.50;71.65
65369;HTU21D;51970;53.484;49.488;2024-01-30T08:53:28;-0.55;71.87
65369;HTU21D;51970;53.484;49.488;2024-01-30T08:55:54;-0.69;72.19
65369;HTU21D;51970;53.484;49.488;2024-01-30T08:58:20;-0.67;72.32
65369;HTU21D;51970;53.484;49.488;2024-01-30T09:00:46;-0.71;72.80
65369;HTU21D;51970;53.484;49.488;2024-01-30T09:03:12;-0.61;73.06
65369;HTU21D;51970;53.484;49.488;2024-01-30T09:05:39;-0.53;72.77
65369;HTU21D;51970;53.484;49.488;2024-01-30T09:08:05;-0.72;72.43
65369;HTU21D;51970;53.484;49.488;2024-01-30T09:10:31;-0.85;73.45
65369;HTU21D;51970;53.484;49.488;2024-01-30T09:12:57;-0.88;73.99
65369;HTU21D;51970;53.484;49.488;2024-01-30T09:15:23;-0.38;75.05
65369;HTU21D;51970;53.484;49.488;2024-01-30T09:17:49;-0.12;73.37
65369;HTU21D;51970;53.484;49.488;2024-01-30T09:20:16;-0.06;73.71
65369;HTU21D;51970;53.484;49.488;2024-01-30T09:22:42;-0.35;73.47
65369;HTU21D;51970;53.484;49.488;2024-01-30T09:25:08;-0.35;73.70
65369;HTU21D;51970;53.484;49.488;2024-01-30T09:27:35;-0.27;73.61
65369;HTU21D;51970;53.484;49.488;2024-01-30T09:30:01;-0.08;73.44
65369;HTU21D;51970;53.484;49.488;2024-01-30T09:32:27;-0.11;72.35
65369;HTU21D;51970;53.484;49.488;2024-01-30T09:34:53;-0.17;73.49
65369;HTU21D;51970;53.484;49.488;2024-01-30T09:37:19;-0.26;74.19
65369;HTU21D;51970;53.484;49.488;2024-01-30T09:39:46;-0.29;73.45
65369;HTU21D;51970;53.484;49.488;2024-01-30T09:42:31;-0.54;73.27
65369;HTU21D;51970;53.484;49.488;2024-01-30T09:45:00;-0.75;74.54
65369;HTU21D;51970;53.484;49.488;2024-01-30T09:47:27;-0.80;74.63
65369;HTU21D;51970;53.484;49.488;2024-01-30T09:49:55;-0.72;74.70
65369;HTU21D;51970;53.484;49.488;2024-01-30T09:52:22;-0.69;75.31
65369;HTU21D;51970;53.484;49.488;2024-01-30T09:54:51;-0.67;75.04
65369;HTU21D;51970;53.484;49.488;2024-01-30T09:57:18;-0.61;75.06
65369;HTU21D;51970;53.484;49.488;2024-01-30T09:59:44;-0.66;74.67
65369;HTU21D;51970;53.484;49.488;2024-01-30T10:02:11;-0.58;75.58
65369;HTU21D;51970;53.484;49.488;2024-01-30T10:04:37;-0.51;74.40
65369;HTU21D;51970;53.484;49.488;2024-01-30T10:07:04;-0.52;75.17
65369;HTU21D;51970;53.484;49.488;2024-01-30T10:09:33;-0.39;73.99
65369;HTU21D;51970;53.484;49.488;2024-01-30T10:12:01;-0.53;74.59
65369;HTU21D;51970;53.484;49.488;2024-01-30T10:14:29;-0.67;74.62
65369;HTU21D;51970;53.484;49.488;2024-01-30T10:16:57;-0.62;74.77
65369;HTU21D;51970;53.484;49.488;2024-01-30T10:19:24;-0.60;74.62
65369;HTU21D;51970;53.484;49.488;2024-01-30T10:21:50;-0.77;74.46
65369;HTU21D;51970;53.484;49.488;2024-01-30T10:24:16;-0.90;76.12
65369;HTU21D;51970;53.484;49.488;2024-01-30T10:26:46;-0.81;75.36
65369;HTU21D;51970;53.484;49.488;2024-01-30T10:29:13;-0.89;75.43
65369;HTU21D;51970;53.484;49.488;2024-01-30T10:31:39;-0.87;76.09
65369;HTU21D;51970;53.484;49.488;2024-01-30T10:34:06;-0.89;75.92
65369;HTU21D;51970;53.484;49.488;2024-01-30T10:36:37;-0.91;76.31
65369;HTU21D;51970;53.484;49.488;2024-01-30T10:39:06;-0.75;76.05
65369;HTU21D;51970;53.484;49.488;2024-01-30T10:41:39;-0.67;75.30
65369;HTU21D;51970;53.484;49.488;2024-01-30T10:44:11;-0.77;75.64
65369;HTU21D;51970;53.484;49.488;2024-01-30T10:46:38;-0.94;76.59
65369;HTU21D;51970;53.484;49.488;2024-01-30T10:49:06;-0.84;76.60
65369;HTU21D;51970;53.484;49.488;2024-01-30T10:51:34;-0.79;75.84
65369;HTU21D;51970;53.484;49.488;2024-01-30T10:54:03;-0.54;76.12
65369;HTU21D;51970;53.484;49.488;2024-01-30T10:56:32;-0.53;75.38
65369;HTU21D;51970;53.484;49.488;2024-01-30T10:58:59;-0.57;75.47
65369;HTU21D;51970;53.484;49.488;2024-01-30T11:01:27;-0.69;76.36
65369;HTU21D;51970;53.484;49.488;2024-01-30T11:03:55;-0.76;77.34
65369;HTU21D;51970;53.484;49.488;2024-01-30T11:06:23;-0.70;77.28
65369;HTU21D;51970;53.484;49.488;2024-01-30T11:09:09;-0.68;77.31
65369;HTU21D;51970;53.484;49.488;2024-01-30T11:11:58;-0.76;77.10
65369;HTU21D;51970;53.484;49.488;2024-01-30T11:14:29;-0.70;77.99
65369;HTU21D;51970;53.484;49.488;2024-01-30T11:16:59;-0.64;77.24
65369;HTU21D;51970;53.484;49.488;2024-01-30T11:19:26;-0.77;77.30
65369;HTU21D;51970;53.484;49.488;2024-01-30T11:21:53;-0.67;77.43
65369;HTU21D;51970;53.484;49.488;2024-01-30T11:24:20;-0.61;77.64
65369;HTU21D;51970;53.484;49.488;2024-01-30T11:26:58;-0.65;77.24
65369;HTU21D;51970;53.484;49.488;2024-01-30T11:29:25;-0.77;77.10
65369;HTU21D;51970;53.484;49.488;2024-01-30T11:31:57;-0.85;77.52
65369;HTU21D;51970;53.484;49.488;2024-01-30T11:34:24;-0.87;77.89
65369;HTU21D;51970;53.484;49.488;2024-01-30T11:37:09;-0.77;77.21
65369;HTU21D;51970;53.484;49.488;2024-01-30T11:39:36;-0.75;77.89
65369;HTU21D;51970;53.484;49.488;2024-01-30T11:42:03;-0.68;77.51
65369;HTU21D;51970;53.484;49.488;2024-01-30T11:44:31;-0.69;77.48
65369;HTU21D;51970;53.484;49.488;2024-01-30T11:46:58;-0.71;77.92
65369;HTU21D;51970;53.484;49.488;2024-01-30T11:49:24;-0.65;77.93
65369;HTU21D;51970;53.484;49.488;2024-01-30T11:51:52;-0.53;77.66
65369;HTU21D;51970;53.484;49.488;2024-01-30T11:54:20;-0.50;77.48
65369;HTU21D;51970;53.484;49.488;2024-01-30T11:56:46;-0.52;77.02
65369;HTU21D;51970;53.484;49.488;2024-01-30T11:59:13;-0.49;77.10
65369;HTU21D;51970;53.484;49.488;2024-01-30T12:01:40;-0.58;77.48
65369;HTU21D;51970;53.484;49.488;2024-01-30T12:04:08;-0.66;78.17
65369;HTU21D;51970;53.484;49.488;2024-01-30T12:06:35;-0.72;78.11
65369;HTU21D;51970;53.484;49.488;2024-01-30T12:09:03;-0.64;79.50
65369;HTU21D;51970;53.484;49.488;2024-01-30T12:11:56;-0.64;78.37
65369;HTU21D;51970;53.484;49.488;2024-01-30T12:14:22;-0.64;77.66
65369;HTU21D;51970;53.484;49.488;2024-01-30T12:16:51;-0.70;78.18
65369;HTU21D;51970;53.484;49.488;2024-01-30T12:19:24;-0.72;78.81
65369;HTU21D;51970;53.484;49.488;2024-01-30T12:21:57;-0.69;79.30
65369;HTU21D;51970;53.484;49.488;2024-01-30T12:24:28;-0.67;79.85
65369;HTU21D;51970;53.484;49.488;2024-01-30T12:26:59;-0.66;79.56
65369;HTU21D;51970;53.484;49.488;2024-01-30T12:29:26;-0.73;78.85
65369;HTU21D;51970;53.484;49.488;2024-01-30T12:31:55;-0.82;79.28
65369;HTU21D;51970;53.484;49.488;2024-01-30T12:34:24;-0.85;79.59
65369;HTU21D;51970;53.484;49.488;2024-01-30T12:36:51;-0.80;80.27
65369;HTU21D;51970;53.484;49.488;2024-01-30T12:39:17;-0.88;80.48
65369;HTU21D;51970;53.484;49.488;2024-01-30T12:41:44;-0.90;80.17
65369;HTU21D;51970;53.484;49.488;2024-01-30T12:44:11;-0.95;80.75
65369;HTU21D;51970;53.484;49.488;2024-01-30T12:46:39;-0.91;81.14
65369;HTU21D;51970;53.484;49.488;2024-01-30T12:49:05;-0.89;80.88
65369;HTU21D;51970;53.484;49.488;2024-01-30T12:51:34;-0.97;80.62
65369;HTU21D;51970;53.484;49.488;2024-01-30T12:54:05;-0.99;80.82
65369;HTU21D;51970;53.484;49.488;2024-01-30T12:56:31;-0.98;81.17
65369;HTU21D;51970;53.484;49.488;2024-01-30T12:58:57;-0.99;80.24
65369;HTU21D;51970;53.484;49.488;2024-01-30T13:01:23;-0.96;80.61
65369;HTU21D;51970;53.484;49.488;2024-01-30T13:03:50;-0.90;80.36
65369;HTU21D;51970;53.484;49.488;2024-01-30T13:06:16;-0.89;80.37
65369;HTU21D;51970;53.484;49.488;2024-01-30T13:08:42;-0.94;79.76
65369;HTU21D;51970;53.484;49.488;2024-01-30T13:11:08;-0.96;80.12
65369;HTU21D;51970;53.484;49.488;2024-01-30T13:13:34;-0.98;80.26
65369;HTU21D;51970;53.484;49.488;2024-01-30T13:16:01;-1.06;80.48
65369;HTU21D;51970;53.484;49.488;2024-01-30T13:18:27;-1.04;80.48
65369;HTU21D;51970;53.484;49.488;2024-01-30T13:20:53;-1.08;81.10
65369;HTU21D;51970;53.484;49.488;2024-01-30T13:23:19;-1.05;80.80
65369;HTU21D;51970;53.484;49.488;2024-01-30T13:25:46;-1.09;80.87
65369;HTU21D;51970;53.484;49.488;2024-01-30T13:28:12;-1.09;81.20
65369;HTU21D;51970;53.484;49.488;2024-01-30T13:30:38;-1.06;80.91
65369;HTU21D;51970;53.484;49.488;2024-01-30T13:33:05;-1.10;80.93
65369;HTU21D;51970;53.484;49.488;2024-01-30T13:35:31;-1.11;80.98
65369;HTU21D;51970;53.484;49.488;2024-01-30T13:37:57;-1.10;81.33
65369;HTU21D;51970;53.484;49.488;2024-01-30T13:40:23;-1.12;81.03
65369;HTU21D;51970;53.484;49.488;2024-01-30T13:42:50;-1.11;81.17
65369;HTU21D;51970;53.484;49.488;2024-01-30T13:45:16;-1.12;81.10
65369;HTU21D;51970;53.484;49.488;2024-01-30T13:47:42;-1.19;81.43
65369;HTU21D;51970;53.484;49.488;2024-01-30T13:50:13;-1.11;81.81
65369;HTU21D;51970;53.484;49.488;2024-01-30T13:52:41;-1.11;81.49
65369;HTU21D;51970;53.484;49.488;2024-01-30T13:55:07;-1.08;81.42
65369;HTU21D;51970;53.484;49.488;2024-01-30T13:57:34;-1.03;81.13
65369;HTU21D;51970;53.484;49.488;2024-01-30T14:00:03;-1.11;81.64
65369;HTU21D;51970;53.484;49.488;2024-01-30T14:02:32;-1.09;81.65
65369;HTU21D;51970;53.484;49.488;2024-01-30T14:04:58;-1.02;81.70
65369;HTU21D;51970;53.484;49.488;2024-01-30T14:07:25;-1.02;81.56
65369;HTU21D;51970;53.484;49.488;2024-01-30T14:09:51;-1.02;81.68
65369;HTU21D;51970;53.484;49.488;2024-01-30T14:12:17;-1.01;81.70
65369;HTU21D;51970;53.484;49.488;2024-01-30T14:14:46;-1.00;81.68
65369;HTU21D;51970;53.484;49.488;2024-01-30T14:17:12;-1.02;82.16
65369;HTU21D;51970;53.484;49.488;2024-01-30T14:19:38;-0.99;82.29
65369;HTU21D;51970;53.484;49.488;2024-01-30T14:22:04;-1.04;82.36
65369;HTU21D;51970;53.484;49.488;2024-01-30T14:24:32;-1.00;82.67
65369;HTU21D;51970;53.484;49.488;2024-01-30T14:26:58;-0.93;82.87
65369;HTU21D;51970;53.484;49.488;2024-01-30T14:29:25;-0.90;82.81
65369;HTU21D;51970;53.484;49.488;2024-01-30T14:31:52;-0.90;82.98
65369;HTU21D;51970;53.484;49.488;2024-01-30T14:34:20;-0.85;82.95
65369;HTU21D;51970;53.484;49.488;2024-01-30T14:36:47;-0.85;83.10
65369;HTU21D;51970;53.484;49.488;2024-01-30T14:39:13;-0.80;83.17
65369;HTU21D;51970;53.484;49.488;2024-01-30T14:41:40;-0.83;83.34
65369;HTU21D;51970;53.484;49.488;2024-01-30T14:44:07;-0.81;83.33
65369;HTU21D;51970;53.484;49.488;2024-01-30T14:46:34;-0.80;83.81
65369;HTU21D;51970;53.484;49.488;2024-01-30T14:49:00;-0.79;83.82
65369;HTU21D;51970;53.484;49.488;2024-01-30T14:51:29;-0.80;83.83
65369;HTU21D;51970;53.484;49.488;2024-01-30T14:53:56;-0.74;83.82
65369;HTU21D;51970;53.484;49.488;2024-01-30T14:56:22;-0.76;84.54
65369;HTU21D;51970;53.484;49.488;2024-01-30T14:58:49;-0.77;84.52
65369;HTU21D;51970;53.484;49.488;2024-01-30T15:01:15;-0.75;84.44
65369;HTU21D;51970;53.484;49.488;2024-01-30T15:03:41;-0.77;84.71